Time;durP1;ratioP1;P1;durP2;ratioP2;P2;SDS_P1;SDS_P2;PMS_P1;PMS_P2;Temp;Humidity;BMP_temperature;BMP_pressure;BME280_temperature;BME280_humidity;BME280_pressure;Samples;Min_cycle;Max_cycle;Signal;HPM_P1;HPM_P2
2024/04/10 00:00:59;;;;;;;1.50;1.10;;;10.30;98.20;;;;;;5289764;26;20491;-84
2024/04/10 00:03:25;;;;;;;1.50;1.10;;;10.30;98.20;;;;;;5326037;26;21092;-80
2024/04/10 00:06:00;;;;;;;1.50;1.10;;;10.30;98.20;;;;;;5291520;26;20463;-80
2024/04/10 00:08:26;;;;;;;1.50;1.20;;;10.30;98.20;;;;;;5317613;26;20312;-83
2024/04/10 00:10:55;;;;;;;1.50;1.10;;;10.30;98.20;;;;;;5292133;26;20591;-80
2024/04/10 00:13:23;;;;;;;1.50;1.10;;;10.30;98.20;;;;;;5325574;26;20522;-81
2024/04/10 00:16:00;;;;;;;1.50;1.10;;;10.30;98.20;;;;;;5292062;26;20467;-81
2024/04/10 00:18:26;;;;;;;1.50;1.10;;;10.30;98.20;;;;;;5318757;26;20586;-80
2024/04/10 00:20:54;;;;;;;1.50;1.20;;;10.30;98.20;;;;;;5292512;26;21077;-80
2024/04/10 00:23:20;;;;;;;1.50;1.10;;;10.30;98.20;;;;;;5327914;26;20614;-81
2024/04/10 00:25:55;;;;;;;1.50;1.10;;;10.30;98.20;;;;;;5293414;27;20467;-80
2024/04/10 00:28:24;;;;;;;1.50;1.00;;;10.30;98.20;;;;;;5319288;26;20481;-80
2024/04/10 00:30:53;;;;;;;1.50;1.10;;;10.30;98.20;;;;;;5290232;26;20957;-81
2024/04/10 00:33:19;;;;;;;1.50;1.10;;;10.30;98.20;;;;;;5327506;26;21163;-80
2024/04/10 00:35:57;;;;;;;1.50;1.10;;;10.30;98.20;;;;;;5299404;26;20460;-80
2024/04/10 00:38:23;;;;;;;1.50;1.20;;;10.30;98.20;;;;;;5317523;26;20531;-80
2024/04/10 00:40:56;;;;;;;1.50;1.10;;;10.30;98.20;;;;;;5290203;26;20463;-79
2024/04/10 00:43:24;;;;;;;1.50;1.20;;;10.30;98.20;;;;;;5316911;26;20526;-80
2024/04/10 00:45:57;;;;;;;1.50;1.10;;;10.30;98.20;;;;;;5288255;26;20523;-80
2024/04/10 00:48:23;;;;;;;1.50;1.10;;;10.30;98.20;;;;;;5325064;26;20475;-79
2024/04/10 00:50:53;;;;;;;1.50;1.20;;;10.30;98.20;;;;;;5290561;26;21131;-79
2024/04/10 00:53:19;;;;;;;1.50;1.20;;;10.30;98.20;;;;;;5327961;26;20992;-80
2024/04/10 00:55:47;;;;;;;1.50;1.07;;;10.30;98.20;;;;;;5300885;26;20581;-80
2024/04/10 00:58:14;;;;;;;1.50;1.10;;;10.30;98.20;;;;;;5327830;26;20618;-80
2024/04/10 01:00:45;;;;;;;1.50;1.10;;;10.30;98.20;;;;;;5301633;27;20572;-79
2024/04/10 01:03:11;;;;;;;1.50;1.20;;;10.30;98.20;;;;;;5291989;27;20590;-80
2024/04/10 01:05:40;;;;;;;1.50;1.10;;;10.20;98.20;;;;;;5305436;26;21065;-79
2024/04/10 01:08:06;;;;;;;1.50;1.10;;;10.20;98.20;;;;;;5320304;26;20653;-81
2024/04/10 01:10:35;;;;;;;1.50;1.10;;;10.10;98.20;;;;;;5301655;26;20515;-80
2024/04/10 01:13:01;;;;;;;1.50;1.10;;;10.10;98.20;;;;;;5320266;26;20486;-79
2024/04/10 01:15:31;;;;;;;1.50;1.10;;;10.00;98.20;;;;;;5305406;26;20483;-80
2024/04/10 01:18:00;;;;;;;1.50;1.10;;;10.00;98.20;;;;;;5320424;26;20622;-81
2024/04/10 01:20:28;;;;;;;1.50;1.10;;;10.00;98.20;;;;;;5303866;27;20506;-80
2024/04/10 01:23:00;;;;;;;1.50;1.10;;;9.90;98.20;;;;;;5320729;26;20521;-81
2024/04/10 01:25:28;;;;;;;1.50;1.10;;;9.90;98.20;;;;;;5305721;26;20471;-80
2024/04/10 01:27:57;;;;;;;1.50;1.10;;;9.80;98.20;;;;;;5319750;26;20550;-81
2024/04/10 01:30:25;;;;;;;1.50;1.20;;;9.80;98.20;;;;;;5300500;26;20588;-80
2024/04/10 01:32:51;;;;;;;1.50;1.17;;;9.70;98.20;;;;;;5321233;26;20654;-80
2024/04/10 01:35:20;;;;;;;1.50;1.10;;;9.70;98.20;;;;;;5305195;26;20491;-81
2024/04/10 01:37:46;;;;;;;1.50;1.10;;;9.70;98.20;;;;;;5320619;26;20372;-81
2024/04/10 01:40:17;;;;;;;1.50;1.10;;;9.60;98.20;;;;;;5298374;27;20467;-81
2024/04/10 01:42:43;;;;;;;1.50;1.10;;;9.60;98.20;;;;;;5316292;26;20379;-81
2024/04/10 01:45:12;;;;;;;1.50;1.13;;;9.50;98.20;;;;;;5304368;26;20531;-80
2024/04/10 01:47:38;;;;;;;1.50;1.20;;;9.50;98.20;;;;;;5320694;26;21100;-80
2024/04/10 01:50:07;;;;;;;1.50;1.20;;;9.50;98.20;;;;;;5301449;26;20492;-80
2024/04/10 01:52:33;;;;;;;1.50;1.20;;;9.50;98.20;;;;;;5309374;26;20576;-80
2024/04/10 01:55:02;;;;;;;1.57;1.20;;;9.40;98.20;;;;;;5303649;26;20479;-83
2024/04/10 01:57:30;;;;;;;1.50;1.10;;;9.40;98.20;;;;;;5314908;26;20501;-80
2024/04/10 01:59:59;;;;;;;1.50;1.10;;;9.40;98.20;;;;;;5304975;26;20514;-80
2024/04/10 02:02:24;;;;;;;1.50;1.20;;;9.40;98.20;;;;;;5315577;26;20498;-81
2024/04/10 02:04:53;;;;;;;1.50;1.20;;;9.30;98.20;;;;;;5307604;26;20566;-80
2024/04/10 02:07:18;;;;;;;1.50;1.10;;;9.30;98.20;;;;;;5309624;26;20783;-80
2024/04/10 02:09:47;;;;;;;1.50;1.20;;;9.30;98.20;;;;;;5308947;26;20460;-80
2024/04/10 02:12:13;;;;;;;1.50;1.20;;;9.30;98.20;;;;;;5313425;26;20350;-81
2024/04/10 02:14:44;;;;;;;1.50;1.10;;;9.30;98.20;;;;;;5309951;26;20875;-80
2024/04/10 02:17:09;;;;;;;1.50;1.10;;;9.20;98.20;;;;;;5310877;26;20380;-81
2024/04/10 02:19:38;;;;;;;1.50;1.20;;;9.20;98.20;;;;;;5311501;26;21049;-81
2024/04/10 02:22:05;;;;;;;1.50;1.10;;;9.20;98.20;;;;;;5309270;26;20267;-80
2024/04/10 02:24:34;;;;;;;1.50;1.10;;;9.20;98.20;;;;;;5314056;26;20484;-81
2024/04/10 02:27:03;;;;;;;1.50;1.10;;;9.10;98.20;;;;;;5311432;26;20557;-80
2024/04/10 02:29:32;;;;;;;1.50;1.10;;;9.10;98.20;;;;;;5315977;26;20522;-81
2024/04/10 02:32:00;;;;;;;1.50;1.20;;;9.10;98.20;;;;;;5311466;26;20604;-81
2024/04/10 02:34:28;;;;;;;1.60;1.30;;;9.10;98.20;;;;;;5317579;26;20471;-80
2024/04/10 02:36:54;;;;;;;1.50;1.10;;;9.00;98.20;;;;;;5308878;26;20498;-82
2024/04/10 02:39:23;;;;;;;2.27;2.07;;;9.00;98.20;;;;;;5317050;26;20585;-80
2024/04/10 02:41:49;;;;;;;1.50;1.20;;;9.00;98.20;;;;;;5290131;26;20661;-79
2024/04/10 02:44:17;;;;;;;1.50;1.20;;;9.00;98.20;;;;;;5303750;26;20467;-80
2024/04/10 02:46:43;;;;;;;1.50;1.20;;;8.90;98.20;;;;;;5306063;26;21275;-80
2024/04/10 02:49:14;;;;;;;1.50;1.20;;;8.90;98.20;;;;;;5317716;26;20475;-80
2024/04/10 02:51:40;;;;;;;1.50;1.20;;;8.90;98.20;;;;;;5303517;26;20260;-80
2024/04/10 02:54:08;;;;;;;1.60;1.40;;;8.90;98.20;;;;;;5316123;26;20590;-80
2024/04/10 02:56:34;;;;;;;1.50;1.10;;;8.90;98.20;;;;;;5305496;26;20297;-82
2024/04/10 02:59:03;;;;;;;1.50;1.13;;;8.80;98.20;;;;;;5318950;26;20465;-79
2024/04/10 03:01:29;;;;;;;1.50;1.20;;;8.80;98.20;;;;;;5305682;26;20349;-83
2024/04/10 03:03:57;;;;;;;1.50;1.10;;;8.80;98.20;;;;;;5311184;26;20534;-78
2024/04/10 03:06:26;;;;;;;1.50;1.10;;;8.70;98.20;;;;;;5302532;26;21631;-83
2024/04/10 03:08:54;;;;;;;1.53;1.20;;;8.70;98.20;;;;;;5321483;26;21198;-83
2024/04/10 03:11:20;;;;;;;1.50;1.20;;;8.70;98.20;;;;;;5301068;26;20490;-81
2024/04/10 03:13:48;;;;;;;1.60;1.40;;;8.70;98.20;;;;;;5323678;26;20510;-81
2024/04/10 03:16:14;;;;;;;1.50;1.20;;;8.70;98.20;;;;;;5301539;26;20473;-82
2024/04/10 03:18:42;;;;;;;1.50;1.20;;;8.70;98.20;;;;;;5325765;26;20487;-82
2024/04/10 03:21:08;;;;;;;1.50;1.30;;;8.70;98.20;;;;;;5297225;26;20279;-83
2024/04/10 03:23:39;;;;;;;1.50;1.20;;;8.60;98.20;;;;;;5323192;26;20858;-81
2024/04/10 03:26:06;;;;;;;1.50;1.20;;;8.60;98.20;;;;;;5295136;26;20338;-82
2024/04/10 03:28:36;;;;;;;1.50;1.10;;;8.60;98.20;;;;;;5327406;26;20471;-81
2024/04/10 03:31:04;;;;;;;1.50;1.30;;;8.60;98.20;;;;;;5286721;26;20515;-82
2024/04/10 03:33:36;;;;;;;1.50;1.20;;;8.60;98.20;;;;;;5325509;26;20476;-82
2024/04/10 03:36:04;;;;;;;1.53;1.20;;;8.60;98.20;;;;;;5295597;26;20475;-82
2024/04/10 03:38:32;;;;;;;1.50;1.10;;;8.60;98.20;;;;;;5329087;26;20839;-80
2024/04/10 03:41:01;;;;;;;1.50;1.10;;;8.50;98.20;;;;;;5294626;26;20600;-82
2024/04/10 03:43:29;;;;;;;1.50;1.20;;;8.50;98.20;;;;;;5328127;26;21021;-80
2024/04/10 03:45:58;;;;;;;1.57;1.30;;;8.50;98.20;;;;;;5293121;26;21036;-81
2024/04/10 03:48:26;;;;;;;1.50;1.20;;;8.50;98.20;;;;;;5324200;26;20605;-82
2024/04/10 03:51:00;;;;;;;1.50;1.20;;;8.50;98.20;;;;;;5292238;26;20547;-83
2024/04/10 03:53:26;;;;;;;1.53;1.20;;;8.40;98.20;;;;;;5326681;26;20571;-81
2024/04/10 03:55:54;;;;;;;1.50;1.20;;;8.40;98.20;;;;;;5323489;21;20518;-82
2024/04/10 03:58:23;;;;;;;1.57;1.30;;;8.40;98.20;;;;;;5330486;26;20235;-82
2024/04/10 04:00:52;;;;;;;1.50;1.20;;;8.40;98.20;;;;;;5332877;26;20474;-84
2024/04/10 04:03:18;;;;;;;1.50;1.20;;;8.40;98.20;;;;;;5335516;26;20524;-83
2024/04/10 04:05:47;;;;;;;1.50;1.20;;;8.40;98.20;;;;;;5342371;26;20541;-82
2024/04/10 04:08:12;;;;;;;1.50;1.20;;;8.40;98.20;;;;;;5315298;26;20254;-83
2024/04/10 04:10:44;;;;;;;1.50;1.20;;;8.30;98.20;;;;;;5343679;26;20585;-83
2024/04/10 04:13:10;;;;;;;1.53;1.20;;;8.40;98.20;;;;;;5302156;26;20255;-82
2024/04/10 04:15:41;;;;;;;1.50;1.20;;;8.30;98.20;;;;;;5343250;26;20508;-84
2024/04/10 04:18:07;;;;;;;1.50;1.20;;;8.40;98.20;;;;;;5318127;26;20394;-82
2024/04/10 04:20:36;;;;;;;1.50;1.20;;;8.30;98.20;;;;;;5340776;26;20481;-81
2024/04/10 04:23:02;;;;;;;1.50;1.20;;;8.30;98.20;;;;;;5329584;26;20309;-83
2024/04/10 04:25:33;;;;;;;1.50;1.20;;;8.30;98.20;;;;;;5352693;26;20490;-83
2024/04/10 04:27:58;;;;;;;1.50;1.20;;;8.30;98.20;;;;;;5308951;26;20262;-83
2024/04/10 04:30:27;;;;;;;1.50;1.30;;;8.30;98.20;;;;;;5345247;26;20530;-83
2024/04/10 04:32:55;;;;;;;1.50;1.20;;;8.30;98.20;;;;;;5323796;26;20268;-84
2024/04/10 04:35:24;;;;;;;1.50;1.20;;;8.30;98.20;;;;;;5337307;26;21055;-83
2024/04/10 04:37:56;;;;;;;1.50;1.20;;;8.30;98.20;;;;;;5329315;26;20493;-83
2024/04/10 04:40:25;;;;;;;1.50;1.20;;;8.30;98.20;;;;;;5341070;26;20466;-83
2024/04/10 04:42:50;;;;;;;1.50;1.20;;;8.30;98.20;;;;;;5338292;26;20553;-85
2024/04/10 04:45:20;;;;;;;1.53;1.20;;;8.30;98.20;;;;;;5345846;26;20466;-84
2024/04/10 04:47:46;;;;;;;1.50;1.20;;;8.30;98.20;;;;;;5332637;26;20271;-83
2024/04/10 04:50:17;;;;;;;1.50;1.20;;;8.30;98.20;;;;;;5347709;26;21035;-84
2024/04/10 04:52:43;;;;;;;1.50;1.20;;;8.30;98.20;;;;;;5334124;26;20266;-84
2024/04/10 04:55:14;;;;;;;1.50;1.10;;;8.30;98.20;;;;;;5346424;26;21209;-83
2024/04/10 04:57:43;;;;;;;1.50;1.20;;;8.30;98.20;;;;;;5337584;26;20745;-86
2024/04/10 05:00:20;;;;;;;1.50;1.20;;;8.30;98.20;;;;;;5350545;26;20469;-85
2024/04/10 05:02:46;;;;;;;1.50;1.20;;;8.30;98.20;;;;;;5333382;26;21241;-83
2024/04/10 05:05:21;;;;;;;1.50;1.10;;;8.30;98.20;;;;;;5348201;26;20556;-85
2024/04/10 05:07:48;;;;;;;1.50;1.20;;;8.30;98.20;;;;;;5333793;26;20557;-84
2024/04/10 05:10:17;;;;;;;1.50;1.20;;;8.30;98.20;;;;;;5344652;26;20929;-84
2024/04/10 05:12:44;;;;;;;1.57;1.30;;;8.40;98.20;;;;;;5336377;26;20493;-84
2024/04/10 05:15:13;;;;;;;1.50;1.23;;;8.40;98.20;;;;;;5349973;26;20544;-85
2024/04/10 05:17:39;;;;;;;1.50;1.20;;;8.40;98.20;;;;;;5336559;26;20590;-85
2024/04/10 05:20:11;;;;;;;1.50;1.20;;;8.50;98.20;;;;;;5345961;26;20760;-85
2024/04/10 05:22:40;;;;;;;1.50;1.20;;;8.50;98.20;;;;;;5323751;26;20498;-84
2024/04/10 05:25:10;;;;;;;1.50;1.20;;;8.60;98.20;;;;;;5345007;26;20481;-86
2024/04/10 05:27:37;;;;;;;1.50;1.10;;;8.60;98.20;;;;;;5330058;26;21031;-83
2024/04/10 05:30:09;;;;;;;1.50;1.10;;;8.60;98.20;;;;;;5342453;26;20473;-84
2024/04/10 05:32:36;;;;;;;1.50;1.20;;;8.70;98.20;;;;;;5334716;26;21110;-83
2024/04/10 05:35:09;;;;;;;1.50;1.20;;;8.70;98.20;;;;;;5346736;26;20528;-86
2024/04/10 05:37:35;;;;;;;1.50;1.10;;;8.80;98.20;;;;;;5333359;26;20494;-86
2024/04/10 05:40:09;;;;;;;1.53;1.20;;;8.90;98.20;;;;;;5344445;26;20466;-83
2024/04/10 05:42:36;;;;;;;1.50;1.20;;;9.00;98.20;;;;;;5322490;26;20600;-86
2024/04/10 05:45:04;;;;;;;1.50;1.20;;;9.00;98.20;;;;;;5344596;26;20540;-82
2024/04/10 05:47:30;;;;;;;1.50;1.20;;;9.10;98.20;;;;;;5332160;26;21172;-83
2024/04/10 05:49:59;;;;;;;1.50;1.17;;;9.10;98.20;;;;;;5344288;26;20526;-86
2024/04/10 05:52:27;;;;;;;1.57;1.20;;;9.20;98.20;;;;;;5325727;26;20683;-84
2024/04/10 05:54:53;;;;;;;1.50;1.20;;;9.30;98.20;;;;;;5346059;26;20478;-84
2024/04/10 05:57:27;;;;;;;1.50;1.20;;;9.30;98.20;;;;;;5334372;26;20494;-85
2024/04/10 05:59:53;;;;;;;1.50;1.20;;;9.40;98.20;;;;;;5346997;26;20494;-87
2024/04/10 06:02:23;;;;;;;1.53;1.17;;;9.40;98.20;;;;;;5333038;26;20546;-85
2024/04/10 06:04:52;;;;;;;1.50;1.20;;;9.50;98.20;;;;;;5347911;26;20549;-83
2024/04/10 06:07:28;;;;;;;1.50;1.10;;;9.60;98.20;;;;;;5332777;26;20499;-83
2024/04/10 06:09:55;;;;;;;1.50;1.20;;;9.70;98.20;;;;;;5350661;26;20473;-85
2024/04/10 06:12:26;;;;;;;1.50;1.10;;;9.70;98.20;;;;;;5337891;26;20502;-84
2024/04/10 06:14:52;;;;;;;1.53;1.20;;;9.80;98.20;;;;;;5350450;26;20470;-85
2024/04/10 06:17:21;;;;;;;1.50;1.23;;;9.90;98.20;;;;;;5326338;26;20564;-84
2024/04/10 06:19:47;;;;;;;1.50;1.10;;;9.90;98.20;;;;;;5349598;26;20485;-83
2024/04/10 06:22:16;;;;;;;1.50;1.10;;;10.00;98.20;;;;;;5334145;26;21510;-84
2024/04/10 06:24:43;;;;;;;1.50;1.10;;;10.00;98.20;;;;;;5349872;26;20481;-85
2024/04/10 06:27:12;;;;;;;1.50;1.20;;;10.10;98.20;;;;;;5335675;26;20733;-83
2024/04/10 06:29:44;;;;;;;1.50;1.10;;;10.10;98.20;;;;;;5348776;26;20526;-83
2024/04/10 06:32:11;;;;;;;1.53;1.30;;;10.20;98.20;;;;;;5333757;26;20620;-83
2024/04/10 06:34:40;;;;;;;1.50;1.20;;;10.30;98.20;;;;;;5350905;26;20882;-84
2024/04/10 06:37:06;;;;;;;1.50;1.10;;;10.30;98.20;;;;;;5335064;26;20502;-84
2024/04/10 06:39:35;;;;;;;1.50;1.20;;;10.40;98.20;;;;;;5350744;26;20666;-84
2024/04/10 06:42:01;;;;;;;1.50;1.07;;;10.50;98.20;;;;;;5334731;26;20490;-83
2024/04/10 06:44:30;;;;;;;1.50;1.10;;;10.60;98.20;;;;;;5360155;26;20477;-84
2024/04/10 06:46:59;;;;;;;1.50;1.10;;;10.70;98.20;;;;;;5332134;26;21061;-81
2024/04/10 06:49:28;;;;;;;1.50;1.10;;;10.70;98.20;;;;;;5334873;26;20533;-81
2024/04/10 06:51:54;;;;;;;1.50;1.10;;;10.80;98.20;;;;;;5332654;26;20489;-79
2024/04/10 06:54:23;;;;;;;1.50;1.20;;;10.90;98.20;;;;;;5343113;26;20563;-78
2024/04/10 06:56:49;;;;;;;1.50;1.20;;;11.00;98.20;;;;;;5330504;26;20310;-78
2024/04/10 06:59:17;;;;;;;1.50;1.10;;;11.00;98.20;;;;;;5333699;26;20458;-79
2024/04/10 07:01:43;;;;;;;1.50;1.20;;;11.10;98.20;;;;;;5329152;26;20592;-80
2024/04/10 07:04:14;;;;;;;1.50;1.10;;;11.20;98.20;;;;;;5340287;26;20481;-80
2024/04/10 07:06:40;;;;;;;1.50;1.00;;;11.30;98.20;;;;;;5332025;26;20382;-79
2024/04/10 07:09:09;;;;;;;1.50;1.10;;;11.30;98.20;;;;;;5338022;26;20474;-80
2024/04/10 07:11:35;;;;;;;1.50;1.10;;;11.40;98.20;;;;;;5330882;26;20359;-80
2024/04/10 07:14:04;;;;;;;1.50;1.10;;;11.50;98.20;;;;;;5337168;26;20596;-78
2024/04/10 07:16:30;;;;;;;1.50;1.10;;;11.50;98.20;;;;;;5327875;26;20501;-79
2024/04/10 07:18:59;;;;;;;1.50;1.10;;;11.60;98.20;;;;;;5339598;26;20477;-79
2024/04/10 07:21:27;;;;;;;1.50;1.03;;;11.70;98.20;;;;;;5329952;26;20514;-80
2024/04/10 07:23:56;;;;;;;1.50;1.00;;;11.70;98.20;;;;;;5339958;26;20466;-79
2024/04/10 07:26:23;;;;;;;1.50;1.00;;;11.80;98.20;;;;;;5327309;26;20517;-78
2024/04/10 07:28:52;;;;;;;1.50;1.10;;;11.90;98.20;;;;;;5342018;26;20575;-78
2024/04/10 07:31:20;;;;;;;1.50;1.10;;;12.10;98.20;;;;;;5328207;26;20816;-78
2024/04/10 07:33:50;;;;;;;1.50;1.10;;;12.10;98.20;;;;;;5340397;26;20507;-81
2024/04/10 07:36:30;;;;;;;1.50;1.00;;;12.20;98.20;;;;;;5331254;26;20529;-79
2024/04/10 07:38:59;;;;;;;1.50;1.00;;;12.30;98.20;;;;;;5339206;26;20541;-79
2024/04/10 07:41:28;;;;;;;1.50;1.10;;;12.40;98.20;;;;;;5328317;26;20625;-80
2024/04/10 07:43:54;;;;;;;1.50;1.00;;;12.40;98.20;;;;;;5341428;26;20520;-80
2024/04/10 07:46:23;;;;;;;1.50;1.00;;;12.50;98.20;;;;;;5331258;26;20505;-79
2024/04/10 07:48:52;;;;;;;1.50;1.00;;;12.50;98.20;;;;;;5339425;26;20270;-80
2024/04/10 07:51:20;;;;;;;1.50;1.00;;;12.60;98.20;;;;;;5330863;26;20501;-80
2024/04/10 07:53:47;;;;;;;1.50;1.00;;;12.60;98.20;;;;;;5341683;26;20558;-81
2024/04/10 07:56:19;;;;;;;1.50;0.90;;;12.70;98.20;;;;;;5337771;26;20584;-80
2024/04/10 07:58:45;;;;;;;1.50;1.00;;;12.70;98.20;;;;;;5342029;26;20463;-79
2024/04/10 08:01:13;;;;;;;1.50;1.00;;;12.80;98.20;;;;;;5327221;26;20557;-80
2024/04/10 08:03:39;;;;;;;1.50;1.00;;;12.80;98.20;;;;;;5331438;26;20539;-79
2024/04/10 08:06:09;;;;;;;1.50;1.00;;;12.80;98.20;;;;;;5334299;26;20466;-79
2024/04/10 08:08:36;;;;;;;1.50;1.00;;;12.90;98.20;;;;;;5333768;26;20473;-79
2024/04/10 08:11:07;;;;;;;1.50;1.10;;;13.00;98.20;;;;;;5328405;26;20539;-80
2024/04/10 08:13:36;;;;;;;1.50;1.10;;;13.00;98.20;;;;;;5334490;26;20564;-79
2024/04/10 08:16:07;;;;;;;1.50;1.10;;;13.20;98.20;;;;;;5330306;26;20481;-79
2024/04/10 08:18:34;;;;;;;1.50;1.00;;;13.30;98.20;;;;;;5334888;26;20533;-79
2024/04/10 08:21:03;;;;;;;1.50;1.10;;;13.60;98.20;;;;;;5330973;26;20474;-79
2024/04/10 08:23:30;;;;;;;1.50;1.00;;;13.70;98.20;;;;;;5335075;26;20533;-80
2024/04/10 08:25:59;;;;;;;1.60;1.30;;;13.80;98.20;;;;;;5331538;26;20531;-81
2024/04/10 08:28:26;;;;;;;1.50;1.00;;;13.80;98.20;;;;;;5326993;26;20521;-79
2024/04/10 08:30:57;;;;;;;1.50;1.00;;;13.90;98.20;;;;;;5334529;26;20468;-79
2024/04/10 08:33:26;;;;;;;1.50;1.00;;;13.90;98.20;;;;;;5332612;26;20474;-79
2024/04/10 08:35:59;;;;;;;1.50;1.07;;;14.00;98.20;;;;;;5329533;26;20538;-79
2024/04/10 08:38:25;;;;;;;1.50;1.00;;;14.00;98.20;;;;;;5331399;26;20518;-79
2024/04/10 08:40:58;;;;;;;1.43;0.97;;;13.90;98.20;;;;;;5328715;26;20823;-80
2024/04/10 08:43:25;;;;;;;1.50;1.10;;;13.90;98.20;;;;;;5337095;26;20583;-80
2024/04/10 08:45:58;;;;;;;1.50;1.00;;;13.90;98.20;;;;;;5330780;26;20788;-79
2024/04/10 08:48:25;;;;;;;1.43;1.00;;;14.00;98.20;;;;;;5338297;26;20470;-79
2024/04/10 08:50:54;;;;;;;1.50;1.00;;;13.90;98.20;;;;;;5335453;26;20910;-80
2024/04/10 08:53:21;;;;;;;1.50;1.00;;;13.90;98.20;;;;;;5334891;26;20630;-79
2024/04/10 08:55:50;;;;;;;1.47;1.00;;;14.00;98.20;;;;;;5329657;26;20494;-77
2024/04/10 08:58:16;;;;;;;1.50;1.00;;;14.00;98.20;;;;;;5334072;26;20793;-78
2024/04/10 09:00:46;;;;;;;1.50;1.00;;;13.90;98.20;;;;;;5340744;26;21080;-80
2024/04/10 09:03:14;;;;;;;1.50;1.00;;;13.90;98.20;;;;;;5325305;26;20247;-79
2024/04/10 09:05:46;;;;;;;1.50;1.00;;;14.10;98.20;;;;;;5336748;26;20561;-76
2024/04/10 09:08:12;;;;;;;1.50;1.00;;;14.40;98.20;;;;;;5313212;26;20470;-82
2024/04/10 09:10:41;;;;;;;1.50;1.00;;;14.70;98.20;;;;;;5346126;26;20478;-82
2024/04/10 09:13:08;;;;;;;1.47;1.00;;;14.90;98.20;;;;;;5343637;26;20254;-81
2024/04/10 09:15:37;;;;;;;1.50;1.00;;;15.00;98.20;;;;;;5354461;26;20641;-81
2024/04/10 09:18:04;;;;;;;1.50;1.00;;;15.00;97.80;;;;;;5342250;26;20616;-80
2024/04/10 09:20:36;;;;;;;1.50;1.00;;;14.90;97.80;;;;;;5347853;26;20620;-81
2024/04/10 09:23:04;;;;;;;1.50;1.10;;;14.80;98.20;;;;;;5337370;26;20501;-81
2024/04/10 09:25:33;;;;;;;1.50;0.90;;;15.10;98.20;;;;;;5351094;26;20587;-81
2024/04/10 09:28:00;;;;;;;1.50;1.00;;;15.20;96.70;;;;;;5347247;26;20531;-81
2024/04/10 09:30:29;;;;;;;1.50;1.00;;;15.20;96.60;;;;;;5356245;26;20589;-81
2024/04/10 09:32:56;;;;;;;1.50;1.00;;;15.20;96.50;;;;;;5337317;26;20495;-82
2024/04/10 09:35:26;;;;;;;1.50;0.93;;;15.30;95.40;;;;;;5364456;26;20474;-81
2024/04/10 09:37:57;;;;;;;1.50;0.90;;;15.50;95.20;;;;;;5347998;26;20555;-81
2024/04/10 09:40:26;;;;;;;1.50;1.00;;;15.70;95.40;;;;;;5358453;26;20485;-81
2024/04/10 09:42:59;;;;;;;1.50;0.97;;;15.90;94.30;;;;;;5339708;26;20491;-81
2024/04/10 09:45:29;;;;;;;1.47;0.93;;;16.00;93.50;;;;;;5354639;26;20492;-82
2024/04/10 09:47:56;;;;;;;1.50;1.00;;;16.00;94.70;;;;;;5350353;26;20536;-76
2024/04/10 09:50:32;;;;;;;1.50;0.90;;;16.10;94.40;;;;;;5363021;26;20759;-77
2024/04/10 09:53:02;;;;;;;1.50;1.00;;;16.10;94.50;;;;;;5330228;26;20654;-77
2024/04/10 09:55:33;;;;;;;1.47;0.90;;;16.10;94.20;;;;;;5360572;26;20482;-80
2024/04/10 09:58:00;;;;;;;1.50;1.00;;;16.00;92.60;;;;;;5350256;26;20575;-82
2024/04/10 10:00:29;;;;;;;1.47;1.00;;;15.70;93.00;;;;;;5382047;21;20504;-83
2024/04/10 10:03:05;;;;;;;1.50;1.00;;;15.60;94.10;;;;;;5363855;26;21075;-82
2024/04/10 10:05:36;;;;;;;1.50;1.00;;;15.50;93.40;;;;;;5350488;26;20544;-82
2024/04/10 10:08:11;;;;;;;1.47;1.00;;;15.70;94.40;;;;;;5364062;26;20534;-78
2024/04/10 10:10:49;;;;;;;1.50;1.10;;;15.90;93.60;;;;;;5354970;26;20551;-81
2024/04/10 10:13:28;;;;;;;1.50;0.90;;;15.90;93.10;;;;;;5317770;26;20468;-81
2024/04/10 10:15:58;;;;;;;1.47;0.90;;;15.70;93.60;;;;;;5353214;26;20472;-81
2024/04/10 10:18:28;;;;;;;1.47;0.90;;;15.50;93.70;;;;;;5358239;26;20481;-81
2024/04/10 10:21:04;;;;;;;1.50;1.00;;;15.40;94.00;;;;;;5352832;26;21233;-80
2024/04/10 10:23:36;;;;;;;1.47;1.00;;;15.20;95.00;;;;;;5346802;26;20614;-83
2024/04/10 10:26:02;;;;;;;1.50;1.00;;;15.20;95.90;;;;;;5360079;26;20889;-83
2024/04/10 10:28:31;;;;;;;1.47;0.90;;;15.40;95.20;;;;;;5362146;26;20919;-81
2024/04/10 10:31:08;;;;;;;1.43;0.90;;;15.70;93.90;;;;;;5359863;26;20490;-81
2024/04/10 10:33:38;;;;;;;1.40;0.90;;;16.00;93.20;;;;;;5355122;26;20491;-82
2024/04/10 10:36:05;;;;;;;1.50;1.00;;;16.10;92.00;;;;;;5334889;26;20476;-80
2024/04/10 10:38:36;;;;;;;1.40;0.90;;;16.00;91.70;;;;;;5355061;26;20474;-82
2024/04/10 10:41:07;;;;;;;1.47;1.00;;;16.20;91.70;;;;;;5347821;26;20593;-84
2024/04/10 10:43:36;;;;;;;1.50;1.00;;;16.50;90.80;;;;;;5343059;26;20474;-84
2024/04/10 10:46:02;;;;;;;1.50;0.90;;;16.90;90.10;;;;;;5349890;26;20465;-85
2024/04/10 10:48:31;;;;;;;1.50;0.90;;;17.30;88.40;;;;;;5347495;26;20528;-82
2024/04/10 10:50:58;;;;;;;1.50;0.90;;;17.70;89.70;;;;;;5332699;26;22154;-81
2024/04/10 10:53:28;;;;;;;1.50;0.90;;;18.20;85.80;;;;;;5350993;26;20883;-82
2024/04/10 10:55:57;;;;;;;1.50;0.90;;;18.40;84.70;;;;;;5347600;26;20665;-79
2024/04/10 10:58:27;;;;;;;2.57;2.30;;;18.70;83.30;;;;;;5344395;26;20494;-81
2024/04/10 11:01:07;;;;;;;1.50;0.90;;;18.90;82.80;;;;;;5354104;26;20517;-81
2024/04/10 11:03:35;;;;;;;1.50;0.90;;;19.10;82.20;;;;;;5350551;26;20515;-80
2024/04/10 11:06:08;;;;;;;1.50;0.90;;;19.30;81.20;;;;;;5355547;26;20525;-80
2024/04/10 11:08:37;;;;;;;1.47;0.90;;;19.40;79.90;;;;;;5345581;26;20468;-80
2024/04/10 11:11:21;;;;;;;1.50;0.90;;;19.50;80.60;;;;;;5347518;26;20488;-80
2024/04/10 11:13:51;;;;;;;1.50;0.90;;;19.60;79.50;;;;;;5354116;26;20502;-80
2024/04/10 11:16:26;;;;;;;1.50;1.00;;;19.70;79.90;;;;;;5355731;26;20588;-80
2024/04/10 11:18:55;;;;;;;1.50;0.90;;;19.80;78.50;;;;;;5361786;26;20469;-80
2024/04/10 11:21:30;;;;;;;1.50;0.90;;;19.80;78.10;;;;;;5342546;26;20545;-82
2024/04/10 11:23:59;;;;;;;1.50;0.90;;;19.90;79.80;;;;;;5363869;26;21011;-79
2024/04/10 11:26:31;;;;;;;1.50;0.90;;;19.90;79.80;;;;;;5350630;26;20602;-82
2024/04/10 11:29:03;;;;;;;1.50;0.90;;;20.00;80.10;;;;;;5360020;26;21075;-80
2024/04/10 11:31:37;;;;;;;1.50;0.90;;;20.00;77.70;;;;;;5347246;26;20494;-80
2024/04/10 11:34:13;;;;;;;1.50;1.17;;;20.10;79.40;;;;;;5346321;26;20524;-80
2024/04/10 11:36:40;;;;;;;1.50;0.90;;;20.30;76.00;;;;;;5337352;26;20501;-81
2024/04/10 11:39:11;;;;;;;1.50;0.90;;;20.50;76.90;;;;;;5349330;26;20583;-81
2024/04/10 11:41:41;;;;;;;1.50;0.90;;;20.50;74.40;;;;;;5336547;26;20559;-81
2024/04/10 11:44:28;;;;;;;1.50;0.87;;;20.50;76.10;;;;;;5352009;26;20550;-81
2024/04/10 11:46:55;;;;;;;1.50;0.90;;;20.60;74.90;;;;;;5342907;26;20497;-82
2024/04/10 11:49:25;;;;;;;1.50;0.90;;;20.60;74.60;;;;;;5357550;26;20933;-81
2024/04/10 11:52:06;;;;;;;1.47;0.90;;;20.30;75.10;;;;;;5345805;26;20557;-80
2024/04/10 11:54:35;;;;;;;1.50;0.90;;;20.00;76.00;;;;;;5355641;26;20511;-80
2024/04/10 11:57:05;;;;;;;1.50;0.90;;;20.00;75.90;;;;;;5345635;26;20500;-80
2024/04/10 11:59:34;;;;;;;1.43;0.87;;;20.20;75.40;;;;;;5352592;26;20474;-83
2024/04/10 12:02:00;;;;;;;1.47;0.90;;;20.30;74.70;;;;;;5348682;26;20543;-82
2024/04/10 12:04:31;;;;;;;1.50;0.90;;;20.10;75.60;;;;;;5355805;26;20473;-80
2024/04/10 12:08:47;;;;;;;1.43;0.90;;;19.80;74.50;;;;;;5536494;25;20568;-81
2024/04/10 12:11:16;;;;;;;1.47;0.90;;;19.40;76.20;;;;;;5492134;25;20488;-81
2024/04/10 12:13:45;;;;;;;1.43;0.90;;;19.50;77.50;;;;;;5513617;25;21022;-80
2024/04/10 12:16:14;;;;;;;1.47;0.90;;;19.50;78.10;;;;;;5495967;25;20500;-81
2024/04/10 12:18:53;;;;;;;1.47;0.90;;;19.40;77.80;;;;;;5460371;26;20904;-81
2024/04/10 12:21:22;;;;;;;1.50;0.90;;;19.10;78.80;;;;;;5435022;26;20850;-81
2024/04/10 12:23:54;;;;;;;1.50;0.90;;;19.00;79.90;;;;;;5466430;26;20481;-81
2024/04/10 12:26:26;;;;;;;1.43;0.90;;;18.80;78.90;;;;;;5452921;25;20551;-80
2024/04/10 12:28:55;;;;;;;1.50;0.83;;;18.70;80.50;;;;;;5517971;25;20521;-82
2024/04/10 12:31:21;;;;;;;1.47;0.90;;;18.50;80.80;;;;;;5481195;25;20555;-81
2024/04/10 12:33:51;;;;;;;1.50;0.90;;;18.80;80.30;;;;;;5520809;25;20576;-81
2024/04/10 12:39:13;;;;;;;1.43;0.90;;;19.60;80.20;;;;;;5444919;26;20550;-80
2024/04/10 12:41:47;;;;;;;1.50;0.90;;;19.80;78.60;;;;;;5450387;25;20617;-80
2024/04/10 12:44:20;;;;;;;1.50;0.90;;;19.70;78.40;;;;;;5499101;26;20528;-82
2024/04/10 12:46:50;;;;;;;1.40;0.90;;;19.80;79.10;;;;;;5479531;25;20887;-81
2024/04/10 12:49:19;;;;;;;1.47;0.90;;;20.10;78.30;;;;;;5493250;26;20476;-81
2024/04/10 12:51:46;;;;;;;1.47;0.90;;;20.50;80.90;;;;;;5487417;25;20547;-80
2024/04/10 12:54:18;;;;;;;1.50;1.00;;;20.90;74.10;;;;;;5491196;26;20539;-81
2024/04/10 12:56:48;;;;;;;1.47;0.90;;;21.20;74.00;;;;;;5486559;25;20480;-80
2024/04/10 12:59:17;;;;;;;1.50;1.10;;;21.40;73.00;;;;;;5484736;26;20488;-82
2024/04/10 13:01:47;;;;;;;1.47;0.80;;;21.50;75.20;;;;;;5483911;25;20547;-80
2024/04/10 13:04:19;;;;;;;1.50;0.80;;;21.60;73.30;;;;;;5498283;26;20464;-81